Terminal Aerodrome Forecast
Issued by NWS

Home | Current Version | Previous Version | Text Only | Print | Product List | Glossary On
Versions: 1 2 3 4 5 6 7 8 9 10 11 12
000
FTUS45 KREV 271120
TAFMMH
TAF
KMMH 271120Z 2712/2812 VRB03KT P6SM SKC
     FM271700 12008KT P6SM FEW070
     FM272200 23010G18KT P6SM SCT060 SCT150
     FM280200 29008KT P6SM FEW060 SCT150=

USA.gov is the U.S. government's official web portal to all federal, state and local government web resources and services.